< < Back
Terminal Aerodrome Forecast


Current Version              Previous Versions:   1  2  3  4  5  6  7  8  9  

Terminal Aerodrome Forecast

639
FTUS44 KMOB 261245 AAB
TAFMOB
TAF AMD
KMOB 261245Z 2613/2712 12004G22KT 4SM TSRA BR BKN020CB BKN035
     FM261800 15007G15KT P6SM VCTS BKN030CB OVC120 PROB30 2700/2706
      5SM TSRA BKN025CB=

Latest METAR

507
SAUS80 KWBC 270100
MTRMOB
METAR KMOB 270056Z 13007KT 10SM SCT110 25/23 A3012 RMK AO2 SLP198
T02500233


USA.gov is the U.S. government's official web portal to all federal, state and local government web resources and services.